Flight Track Log - Related Links

Times and Time Zones

All times are in EDT time to prevent confusion due to time zone crossing. See the EJA947 flight status page for this flight to view local times or setup timezone preferences in your user account.

Time Position Orientation Groundspeed Altitude Reporting Facility
EDT Latitude Longitude Course Direction KTS MPH feet Rate Location/Type
Fri 09:29:13 PM 34.0000 -118.4833 253° West 175 201 2,000  Level Southern California TRACON
Fri 09:30:19 PM 33.9833 -118.5500 253° West 207 238 4,300 2,018 Climbing Southern California TRACON
Fri 09:31:03 PM 33.9594 -118.5953 238° Southwest 210 242 5,700 1,755 Climbing Los Angeles Center
Fri 09:32:05 PM 33.8950 -118.6058 188° South 244 281 7,400 1,935 Climbing Los Angeles Center
Fri 09:33:07 PM 33.8261 -118.5817 164° South 277 319 9,700 1,790 Climbing Los Angeles Center
Fri 09:34:09 PM 33.7475 -118.5581 166° South 297 342 11,100 629 Climbing Los Angeles Center
Fri 09:35:11 PM 33.6561 -118.4889 148° Southeast 346 398 11,000 -48 Descending Los Angeles Center
Fri 09:36:13 PM 33.5981 -118.3969 127° Southeast 350 403 11,000  Level Los Angeles Center
Fri 09:37:15 PM 33.5406 -118.3033 126° Southeast 353 406 11,000  Level Los Angeles Center
Fri 09:38:17 PM 33.4886 -118.2178 126° Southeast 316 364 11,000 -384 Level Los Angeles Center
Fri 09:39:20 PM 33.4464 -118.1161 116° Southeast 288 331 10,200 -1,152 Descending Los Angeles Center
Fri 09:40:22 PM 33.4242 -118.0250 106° East 286 329 8,600 -1,548 Descending Los Angeles Center
Fri 09:41:24 PM 33.3981 -117.9378 110° East 282 325 7,000 -1,452 Descending Los Angeles Center
Fri 09:42:26 PM 33.3728 -117.8494 109° East 281 323 5,600 -968 Descending Los Angeles Center
Fri 09:43:28 PM 33.3475 -117.7642 110° East 279 321 5,000 -290 Descending Los Angeles Center
Fri 09:44:30 PM 33.3164 -117.6622 110° East 275 316 5,000  Level Los Angeles Center
Fri 09:45:14 PM 33.3000 -117.6000 107° East 275 316 5,000  Level Southern California TRACON
Fri 09:46:08 PM 33.2667 -117.5167 116° Southeast 266 306 5,000  Level Southern California TRACON
Fri 09:47:08 PM 33.2500 -117.4500 107° East 217 250 5,000  Level Southern California TRACON
Fri 09:48:08 PM 33.2333 -117.3833 107° East 224 258 5,000  Level Southern California TRACON
Fri 09:49:08 PM 33.2333 -117.3167 90° East 221 254 5,000  Level Southern California TRACON
Fri 09:50:08 PM 33.2333 -117.2333 90° East 221 254 5,000 -200 Level Southern California TRACON
Fri 09:51:08 PM 33.2333 -117.1667 90° East 214 246 4,600 -476 Descending Southern California TRACON
Fri 09:52:14 PM 33.2000 -117.1000 121° Southeast 198 228 4,000 -524 Descending Southern California TRACON
Fri 09:53:14 PM 33.1500 -117.1000 180° South 196 226 3,500 -850 Descending Southern California TRACON
Fri 09:54:14 PM 33.1500 -117.1667 270° West 179 206 2,300 -1,000 Descending Southern California TRACON
Fri 09:55:08 PM 33.1333 -117.2000 239° Southwest 136 157 1,600 -750 Descending Southern California TRACON
Fri 09:56:14 PM 33.1333 -117.2500 270° West 126 145 800 -727 Descending Southern California TRACON

Login

Don't have an account? Register now (free) for customized features, flight alerts, and more!